Wetterdaten: Jahr 2011
Datum Temp Feuchte Luftdruck Regen Wind Richtung Sonnenschein UV Solar Windben
01.01.2011 0,4 C 99 % 1018,3 hPa 0,0 l/m 8,1 km/h NW 0,00 h 0,0 UV-I 22 W/m 20,1 km/h
02.01.2011 -0,8 C 99 % 1021,0 hPa 0,0 l/m 5,2 km/h W-NW 0,08 h 0,0 UV-I 32 W/m 18,9 km/h
03.01.2011 -1,3 C 99 % 1022,0 hPa 0,0 l/m 2,1 km/h W 0,00 h 0,0 UV-I 20 W/m 5,2 km/h
04.01.2011 -3,5 C 97 % 1017,2 hPa 0,0 l/m 0,3 km/h S 2,65 h 0,0 UV-I 113 W/m 1,2 km/h
05.01.2011 -5,6 C 94 % 1009,2 hPa 0,0 l/m 12,5 km/h S-SO 3,33 h 0,0 UV-I 97 W/m 20,5 km/h
06.01.2011 2,4 C 99 % 997,4 hPa 7,8 l/m 8,1 km/h S 0,00 h 0,5 UV-I 32 W/m 15,7 km/h
07.01.2011 3,4 C 99 % 1006,9 hPa 6,2 l/m 5,2 km/h S 0,00 h 0,0 UV-I 32 W/m 8,5 km/h
08.01.2011 6,4 C 90 % 1004,9 hPa 4,4 l/m 7,0 km/h S 2,33 h 0,6 UV-I 114 W/m 12,0 km/h
09.01.2011 2,6 C 93 % 1013,0 hPa 12,4 l/m 7,3 km/h S-SW 0,00 h 0,6 UV-I 60 W/m 19,3 km/h
10.01.2011 -1,0 C 92 % 1020,2 hPa 0,0 l/m 10,9 km/h S 3,50 h 0,6 UV-I 113 W/m 16,1 km/h
11.01.2011 1,9 C 94 % 1008,0 hPa 0,2 l/m 13,6 km/h S-SO 0,33 h 0,5 UV-I 63 W/m 19,7 km/h
12.01.2011 3,3 C 97 % 1012,5 hPa 15,8 l/m 7,6 km/h S 0,00 h 0,5 UV-I 43 W/m 15,3 km/h
13.01.2011 8,7 C 100 % 1009,7 hPa 25,2 l/m 10,3 km/h W 0,00 h 0,0 UV-I 19 W/m 25,0 km/h
14.01.2011 9,4 C 93 % 1010,5 hPa 11,4 l/m 12,4 km/h S-SW 0,00 h 0,0 UV-I 16 W/m 29,3 km/h
15.01.2011 7,1 C 88 % 1020,7 hPa 1,6 l/m 12,7 km/h S-SW 0,00 h 0,5 UV-I 41 W/m 22,5 km/h
16.01.2011 6,8 C 91 % 1023,5 hPa 0,0 l/m 10,4 km/h S 0,67 h 0,6 UV-I 82 W/m 18,1 km/h
17.01.2011 4,1 C 93 % 1021,8 hPa 0,2 l/m 6,6 km/h S 4,17 h 0,7 UV-I 128 W/m 10,5 km/h
18.01.2011 4,5 C 96 % 1022,8 hPa 5,2 l/m 5,5 km/h N-NW 0,08 h 0,5 UV-I 48 W/m 12,9 km/h
19.01.2011 1,2 C 97 % 1026,9 hPa 2,0 l/m 6,1 km/h NW 0,00 h 0,5 UV-I 40 W/m 14,1 km/h
20.01.2011 -0,8 C 92 % 1030,3 hPa 0,4 l/m 5,5 km/h N-NW 0,00 h 0,0 UV-I 37 W/m 11,3 km/h
21.01.2011 -2,0 C 94 % 1034,0 hPa 0,0 l/m 1,8 km/h NW 0,00 h 0,5 UV-I 52 W/m 5,2 km/h
22.01.2011 -0,2 C 98 % 1029,9 hPa 0,8 l/m 1,9 km/h S 0,00 h 0,5 UV-I 39 W/m 3,6 km/h
23.01.2011 0,7 C 99 % 1025,2 hPa 1,2 l/m 1,8 km/h N-NW 0,00 h 0,0 UV-I 36 W/m 5,6 km/h
24.01.2011 1,4 C 99 % 1021,7 hPa 1,0 l/m 5,2 km/h NW 0,00 h 0,0 UV-I 27 W/m 14,5 km/h
25.01.2011 1,2 C 97 % 1007,4 hPa 11,8 l/m 12,7 km/h W-SW 0,08 h 0,6 UV-I 48 W/m 27,3 km/h
26.01.2011 0,3 C 94 % 1011,3 hPa 0,0 l/m 1,7 km/h N-NO 1,33 h 0,6 UV-I 85 W/m 6,0 km/h
27.01.2011 -2,2 C 80 % 1021,9 hPa 0,2 l/m 6,5 km/h O 2,67 h 0,8 UV-I 131 W/m 17,3 km/h
28.01.2011 -2,9 C 88 % 1024,4 hPa 0,0 l/m 7,4 km/h O 2,83 h 0,7 UV-I 115 W/m 18,1 km/h
29.01.2011 -3,3 C 83 % 1020,3 hPa 0,0 l/m 0,8 km/h N-NO 5,33 h 0,8 UV-I 166 W/m 4,8 km/h
30.01.2011 -3,8 C 90 % 1022,1 hPa 0,0 l/m 3,5 km/h N-NO 5,17 h 0,8 UV-I 168 W/m 8,0 km/h
31.01.2011 -6,2 C 94 % 1025,6 hPa 0,0 l/m 0,8 km/h SO 0,42 h 0,6 UV-I 76 W/m 4,4 km/h
01.02.2011 -4,4 C 91 % 1026,3 hPa 0,0 l/m 3,7 km/h S-SW 4,92 h 0,8 UV-I 164 W/m 8,4 km/h
02.02.2011 -0,7 C 96 % 1027,2 hPa 1,4 l/m 7,5 km/h S 0,17 h 0,6 UV-I 71 W/m 13,7 km/h
03.02.2011 1,9 C 96 % 1024,6 hPa 7,2 l/m 5,1 km/h S 0,00 h 0,0 UV-I 27 W/m 13,3 km/h
04.02.2011 6,2 C 89 % 1017,1 hPa 2,4 l/m 21,7 km/h S 0,00 h 0,0 UV-I 22 W/m 44,3 km/h
05.02.2011 8,4 C 87 % 1018,2 hPa 0,0 l/m 20,8 km/h W-SW 0,00 h 0,0 UV-I 19 W/m 39,0 km/h
06.02.2011 7,1 C 84 % 1021,4 hPa 0,2 l/m 15,2 km/h SW 0,00 h 0,5 UV-I 39 W/m 29,8 km/h
07.02.2011 8,3 C 66 % 1015,6 hPa 0,0 l/m 10,9 km/h S 6,00 h 0,9 UV-I 194 W/m 22,9 km/h
08.02.2011 1,9 C 85 % 1022,7 hPa 0,0 l/m 5,2 km/h W 1,83 h 0,7 UV-I 115 W/m 13,7 km/h
09.02.2011 1,6 C 81 % 1023,2 hPa 0,2 l/m 0,6 km/h S 6,17 h 0,9 UV-I 198 W/m 2,8 km/h
10.02.2011 4,6 C 88 % 1014,8 hPa 3,6 l/m 7,5 km/h S 1,75 h 0,8 UV-I 116 W/m 12,9 km/h
11.02.2011 5,3 C 98 % 1011,8 hPa 16,2 l/m 6,4 km/h N-NW 0,00 h 0,0 UV-I 22 W/m 14,0 km/h
12.02.2011 -0,3 C 96 % 1015,4 hPa 0,0 l/m 13,6 km/h S-SO 0,00 h 0,5 UV-I 39 W/m 25,0 km/h
13.02.2011 2,6 C 99 % 1011,0 hPa 10,0 l/m 3,3 km/h S 1,17 h 0,7 UV-I 86 W/m 6,4 km/h
14.02.2011 3,0 C 96 % 1007,2 hPa 0,2 l/m 16,7 km/h S-SO 0,00 h 0,7 UV-I 91 W/m 25,3 km/h
15.02.2011 2,6 C 97 % 1000,4 hPa 2,8 l/m 14,2 km/h S-SO 0,00 h 0,5 UV-I 45 W/m 22,5 km/h
16.02.2011 3,4 C 95 % 1001,4 hPa 0,0 l/m 8,7 km/h S-SO 1,42 h 0,8 UV-I 123 W/m 14,9 km/h
17.02.2011 -0,9 C 93 % 1007,6 hPa 0,0 l/m 2,8 km/h NO 0,00 h 0,5 UV-I 51 W/m 10,1 km/h
18.02.2011 -1,5 C 93 % 1016,5 hPa 0,0 l/m 1,1 km/h N-NO 0,00 h 0,5 UV-I 38 W/m 6,0 km/h
19.02.2011 -1,5 C 89 % 1019,0 hPa 0,0 l/m 4,1 km/h O-SO 0,00 h 0,8 UV-I 105 W/m 13,7 km/h
20.02.2011 -4,0 C 78 % 1020,1 hPa 0,0 l/m 10,3 km/h O-SO 4,83 h 1,1 UV-I 203 W/m 20,9 km/h
21.02.2011 -6,3 C 79 % 1020,1 hPa 0,0 l/m 5,6 km/h O-SO 7,00 h 1,0 UV-I 236 W/m 17,3 km/h
22.02.2011 -5,8 C 73 % 1022,3 hPa 0,0 l/m 2,0 km/h SO 6,67 h 1,0 UV-I 247 W/m 6,4 km/h
23.02.2011 -2,7 C 63 % 1025,4 hPa 0,0 l/m 13,0 km/h S-SO 4,17 h 0,9 UV-I 171 W/m 21,3 km/h
24.02.2011 0,6 C 80 % 1025,6 hPa 0,0 l/m 12,6 km/h S-SO 0,58 h 0,9 UV-I 122 W/m 19,7 km/h
25.02.2011 3,6 C 84 % 1028,0 hPa 0,0 l/m 8,4 km/h S-SO 3,92 h 1,1 UV-I 198 W/m 12,9 km/h
26.02.2011 3,8 C 63 % 1014,0 hPa 1,0 l/m 14,9 km/h S-SO 4,75 h 1,3 UV-I 213 W/m 23,7 km/h
27.02.2011 3,0 C 94 % 1012,4 hPa 5,8 l/m 7,7 km/h S-SW 0,00 h 0,7 UV-I 53 W/m 16,1 km/h
28.02.2011 1,9 C 92 % 1026,8 hPa 0,0 l/m 1,1 km/h S-SO 0,00 h 0,9 UV-I 101 W/m 4,8 km/h
01.03.2011 2,2 C 82 % 1034,9 hPa 0,2 l/m 7,6 km/h N-NO 8,67 h 1,1 UV-I 252 W/m 20,1 km/h
02.03.2011 0,1 C 80 % 1034,6 hPa 0,0 l/m 4,2 km/h NO 8,25 h 1,3 UV-I 281 W/m 12,5 km/h
03.03.2011 0,6 C 68 % 1032,4 hPa 0,0 l/m 3,5 km/h N-NO 8,67 h 1,3 UV-I 292 W/m 10,8 km/h
04.03.2011 1,8 C 71 % 1030,5 hPa 0,0 l/m 0,4 km/h N-NO 8,42 h 1,3 UV-I 281 W/m 2,4 km/h
05.03.2011 -2,0 C 96 % 1027,2 hPa 0,0 l/m 2,3 km/h N-NW 0,00 h 0,9 UV-I 90 W/m 8,5 km/h
06.03.2011 -0,7 C 76 % 1030,9 hPa 0,0 l/m 0,8 km/h N-NW 7,33 h 1,7 UV-I 308 W/m 5,6 km/h
07.03.2011 0,9 C 47 % 1033,6 hPa 0,0 l/m 12,0 km/h SO 8,83 h 1,7 UV-I 327 W/m 21,3 km/h
08.03.2011 2,2 C 59 % 1022,5 hPa 0,0 l/m 9,9 km/h S-SO 8,83 h 1,6 UV-I 323 W/m 15,3 km/h
09.03.2011 6,1 C 83 % 1015,0 hPa 0,4 l/m 10,4 km/h S 0,92 h 1,2 UV-I 124 W/m 24,1 km/h
10.03.2011 5,6 C 85 % 1011,3 hPa 0,6 l/m 18,0 km/h S-SW 2,75 h 1,1 UV-I 141 W/m 33,4 km/h
11.03.2011 4,1 C 86 % 1015,2 hPa 0,4 l/m 5,6 km/h S-SW 2,67 h 1,2 UV-I 159 W/m 11,3 km/h
12.03.2011 7,4 C 74 % 1007,9 hPa 0,0 l/m 9,8 km/h S 7,42 h 1,5 UV-I 267 W/m 14,5 km/h
13.03.2011 8,3 C 83 % 1006,5 hPa 0,0 l/m 3,8 km/h S 0,58 h 1,1 UV-I 120 W/m 8,4 km/h
14.03.2011 7,6 C 93 % 1016,5 hPa 0,8 l/m 1,0 km/h N-NW 0,33 h 1,0 UV-I 113 W/m 2,8 km/h
15.03.2011 9,0 C 87 % 1017,6 hPa 0,2 l/m 8,9 km/h O-SO 4,42 h 1,5 UV-I 237 W/m 20,5 km/h
16.03.2011 3,5 C 95 % 1010,9 hPa 0,0 l/m 9,9 km/h NO 0,00 h 0,9 UV-I 92 W/m 23,0 km/h
17.03.2011 3,8 C 99 % 1010,0 hPa 0,4 l/m 5,0 km/h N-NW 0,00 h 0,5 UV-I 27 W/m 12,9 km/h
18.03.2011 3,4 C 97 % 1022,1 hPa 0,8 l/m 3,2 km/h NW 0,08 h 0,9 UV-I 96 W/m 7,3 km/h
19.03.2011 1,7 C 77 % 1032,8 hPa 0,0 l/m 0,9 km/h N-NO 8,00 h 1,7 UV-I 347 W/m 2,4 km/h
20.03.2011 1,6 C 81 % 1034,3 hPa 0,2 l/m 0,6 km/h S-SO 7,68 h 1,5 UV-I 307 W/m 3,2 km/h
21.03.2011 3,9 C 72 % 1035,4 hPa 0,0 l/m 1,2 km/h W-NW 9,58 h 1,7 UV-I 339 W/m 2,8 km/h
22.03.2011 6,4 C 79 % 1037,3 hPa 0,0 l/m 1,9 km/h W-NW 9,50 h 1,8 UV-I 348 W/m 4,4 km/h
23.03.2011 5,9 C 80 % 1038,6 hPa 0,0 l/m 1,2 km/h NW 7,50 h 2,0 UV-I 326 W/m 2,8 km/h
24.03.2011 6,5 C 83 % 1032,6 hPa 0,0 l/m 2,6 km/h S-SO 6,58 h 2,2 UV-I 319 W/m 7,2 km/h
25.03.2011 8,0 C 75 % 1017,4 hPa 0,0 l/m 4,6 km/h N-NW 5,33 h 2,1 UV-I 269 W/m 11,7 km/h
26.03.2011 3,5 C 84 % 1016,8 hPa 0,2 l/m 3,0 km/h N-NW 0,00 h 1,0 UV-I 105 W/m 7,3 km/h
27.03.2011 4,2 C 74 % 1013,9 hPa 0,0 l/m 0,9 km/h S-SO 9,00 h 2,3 UV-I 386 W/m 4,0 km/h
28.03.2011 3,4 C 75 % 1015,4 hPa 0,0 l/m 3,8 km/h N-NW 9,33 h 2,3 UV-I 372 W/m 7,6 km/h
29.03.2011 5,0 C 76 % 1015,4 hPa 0,0 l/m 1,3 km/h S 9,92 h 2,5 UV-I 381 W/m 5,2 km/h
30.03.2011 9,8 C 69 % 1014,6 hPa 0,0 l/m 5,6 km/h S 6,67 h 2,1 UV-I 301 W/m 10,5 km/h
31.03.2011 10,6 C 91 % 1014,3 hPa 5,0 l/m 12,2 km/h S-SW 0,42 h 1,4 UV-I 117 W/m 22,1 km/h
01.04.2011 12,0 C 91 % 1021,0 hPa 0,0 l/m 4,3 km/h W-SW 0,67 h 1,6 UV-I 132 W/m 11,3 km/h
02.04.2011 13,1 C 77 % 1015,1 hPa 0,2 l/m 5,8 km/h S-SO 9,92 h 2,8 UV-I 399 W/m 10,1 km/h
03.04.2011 10,9 C 92 % 1012,1 hPa 14,2 l/m 1,8 km/h S 0,08 h 1,3 UV-I 108 W/m 4,4 km/h
04.04.2011 7,7 C 93 % 1020,4 hPa 4,6 l/m 2,2 km/h W 1,58 h 1,3 UV-I 133 W/m 5,2 km/h
05.04.2011 8,6 C 75 % 1024,2 hPa 0,0 l/m 12,5 km/h S-SW 3,33 h 1,6 UV-I 201 W/m 21,7 km/h
06.04.2011 12,5 C 90 % 1026,1 hPa 0,0 l/m 4,4 km/h SW 4,42 h 1,8 UV-I 212 W/m 12,9 km/h
07.04.2011 12,4 C 76 % 1022,3 hPa 0,0 l/m 10,4 km/h N-NW 5,92 h 2,3 UV-I 265 W/m 23,0 km/h
08.04.2011 9,4 C 75 % 1022,5 hPa 0,0 l/m 13,0 km/h N-NW 9,92 h 2,8 UV-I 398 W/m 29,8 km/h
09.04.2011 8,4 C 78 % 1023,6 hPa 0,0 l/m 4,9 km/h N-NW 9,00 h 2,9 UV-I 388 W/m 10,4 km/h
10.04.2011 8,7 C 71 % 1024,5 hPa 0,0 l/m 0,4 km/h N-NO 11,25 h 3,0 UV-I 424 W/m 2,8 km/h
11.04.2011 13,9 C 64 % 1017,5 hPa 0,0 l/m 2,6 km/h S 10,00 h 2,3 UV-I 353 W/m 8,0 km/h
12.04.2011 6,9 C 75 % 1019,5 hPa 4,0 l/m 12,3 km/h N-NW 2,42 h 1,5 UV-I 184 W/m 23,3 km/h
13.04.2011 7,1 C 72 % 1019,2 hPa 0,0 l/m 10,1 km/h N-NW 1,83 h 1,8 UV-I 212 W/m 19,3 km/h
14.04.2011 4,9 C 79 % 1019,4 hPa 0,0 l/m 1,2 km/h N-NO 4,67 h 1,8 UV-I 264 W/m 2,4 km/h
15.04.2011 6,4 C 72 % 1021,7 hPa 0,0 l/m 1,3 km/h SO 8,33 h 2,6 UV-I 399 W/m 5,2 km/h
16.04.2011 8,4 C 72 % 1023,3 hPa 0,0 l/m 1,1 km/h S 2,17 h 1,9 UV-I 207 W/m 2,4 km/h
17.04.2011 9,8 C 65 % 1024,9 hPa 0,0 l/m 1,5 km/h S-SO 5,50 h 2,6 UV-I 330 W/m 4,4 km/h
18.04.2011 10,3 C 63 % 1020,8 hPa 0,0 l/m 5,0 km/h SO 11,08 h 2,7 UV-I 419 W/m 9,2 km/h
19.04.2011 11,9 C 64 % 1016,8 hPa 0,0 l/m 1,9 km/h SO 11,42 h 2,8 UV-I 435 W/m 5,2 km/h
20.04.2011 13,1 C 63 % 1016,0 hPa 0,0 l/m 0,9 km/h SO 11,50 h 2,7 UV-I 431 W/m 4,4 km/h
21.04.2011 16,1 C 56 % 1015,0 hPa 0,0 l/m 3,1 km/h S 11,08 h 2,6 UV-I 429 W/m 8,4 km/h
22.04.2011 16,8 C 50 % 1011,9 hPa 0,0 l/m 4,2 km/h SO 10,67 h 2,5 UV-I 413 W/m 11,3 km/h
23.04.2011 17,5 C 49 % 1012,3 hPa 0,0 l/m 5,2 km/h O-SO 11,50 h 2,6 UV-I 425 W/m 11,3 km/h
24.04.2011 16,3 C 48 % 1017,5 hPa 0,0 l/m 3,3 km/h O-SO 11,83 h 2,8 UV-I 439 W/m 8,8 km/h
25.04.2011 12,6 C 63 % 1020,4 hPa 0,0 l/m 2,7 km/h N-NO 11,92 h 2,7 UV-I 434 W/m 5,6 km/h
26.04.2011 13,4 C 70 % 1018,6 hPa 0,0 l/m 4,4 km/h N-NO 6,42 h 2,5 UV-I 358 W/m 12,9 km/h
27.04.2011 11,4 C 92 % 1016,9 hPa 7,2 l/m 1,6 km/h N-NO 1,17 h 1,4 UV-I 155 W/m 4,8 km/h
28.04.2011 12,5 C 89 % 1014,3 hPa 12,6 l/m 3,3 km/h NO 4,83 h 2,2 UV-I 305 W/m 10,5 km/h
29.04.2011 14,5 C 74 % 1012,4 hPa 0,0 l/m 5,3 km/h N-NO 10,83 h 2,5 UV-I 381 W/m 17,3 km/h
30.04.2011 12,0 C 60 % 1011,5 hPa 0,0 l/m 9,1 km/h N-NO 11,42 h 2,9 UV-I 428 W/m 25,4 km/h
01.05.2011 9,3 C 58 % 1012,5 hPa 0,0 l/m 4,6 km/h NO 12,33 h 3,2 UV-I 476 W/m 11,6 km/h
02.05.2011 5,8 C 77 % 1012,2 hPa 0,0 l/m 7,4 km/h N-NO 7,42 h 2,5 UV-I 369 W/m 20,1 km/h
03.05.2011 5,0 C 65 % 1016,3 hPa 0,0 l/m 4,4 km/h N-NO 10,75 h 3,0 UV-I 464 W/m 10,9 km/h
04.05.2011 5,0 C 86 % 1021,2 hPa 0,4 l/m 2,2 km/h N-NW 4,10 h 2,2 UV-I 284 W/m 8,0 km/h
05.05.2011 8,5 C 66 % 1024,0 hPa 0,2 l/m 0,2 km/h SO 12,08 h 3,2 UV-I 468 W/m 2,0 km/h
06.05.2011 13,4 C 57 % 1021,0 hPa 0,0 l/m 5,6 km/h S-SO 11,42 h 3,0 UV-I 413 W/m 8,9 km/h
07.05.2011 18,0 C 44 % 1020,1 hPa 0,0 l/m 12,6 km/h SO 12,08 h 2,9 UV-I 422 W/m 22,5 km/h
08.05.2011 17,9 C 50 % 1020,8 hPa 0,0 l/m 13,4 km/h SO 12,67 h 3,2 UV-I 480 W/m 26,9 km/h
09.05.2011 17,8 C 50 % 1023,6 hPa 0,0 l/m 10,7 km/h SO 12,17 h 3,3 UV-I 461 W/m 16,9 km/h
10.05.2011 17,7 C 57 % 1023,4 hPa 0,0 l/m 1,5 km/h S 11,50 h 3,1 UV-I 428 W/m 4,0 km/h
11.05.2011 15,5 C 69 % 1019,8 hPa 0,0 l/m 3,1 km/h NW 9,92 h 3,0 UV-I 413 W/m 8,4 km/h
12.05.2011 11,9 C 81 % 1016,7 hPa 0,6 l/m 1,2 km/h N-NW 4,75 h 2,6 UV-I 300 W/m 5,6 km/h
13.05.2011 12,1 C 71 % 1019,8 hPa 0,0 l/m 2,4 km/h W-NW 8,83 h 3,0 UV-I 393 W/m 7,7 km/h
14.05.2011 12,3 C 61 % 1014,4 hPa 0,0 l/m 7,6 km/h NW 6,17 h 2,5 UV-I 321 W/m 17,3 km/h
15.05.2011 9,1 C 86 % 1020,2 hPa 5,2 l/m 3,6 km/h N-NW 4,92 h 2,6 UV-I 292 W/m 11,6 km/h
16.05.2011 10,0 C 95 % 1020,5 hPa 8,0 l/m 9,1 km/h S-SW 0,00 h 1,1 UV-I 97 W/m 18,9 km/h
17.05.2011 11,8 C 91 % 1019,2 hPa 1,8 l/m 4,7 km/h S-SW 0,08 h 0,9 UV-I 84 W/m 10,1 km/h
18.05.2011 13,9 C 84 % 1016,1 hPa 0,2 l/m 0,9 km/h S 10,50 h 2,9 UV-I 378 W/m 3,2 km/h
19.05.2011 15,7 C 84 % 1016,5 hPa 0,0 l/m 1,3 km/h N-NW 6,33 h 2,4 UV-I 304 W/m 4,8 km/h
20.05.2011 15,6 C 80 % 1017,6 hPa 0,2 l/m 2,5 km/h S-SW 9,25 h 2,9 UV-I 371 W/m 7,2 km/h
21.05.2011 17,0 C 77 % 1019,1 hPa 0,0 l/m 0,8 km/h N-NO 7,75 h 2,7 UV-I 346 W/m 4,0 km/h
22.05.2011 15,5 C 66 % 1016,5 hPa 0,2 l/m 8,1 km/h S 6,33 h 2,4 UV-I 290 W/m 14,9 km/h
23.05.2011 14,4 C 63 % 1021,8 hPa 0,0 l/m 2,9 km/h S-SW 11,92 h 3,7 UV-I 473 W/m 9,3 km/h
24.05.2011 13,3 C 55 % 1023,3 hPa 0,2 l/m 5,9 km/h S 7,17 h 2,9 UV-I 332 W/m 14,1 km/h
25.05.2011 13,7 C 55 % 1024,3 hPa 0,0 l/m 2,2 km/h SO 13,00 h 3,6 UV-I 488 W/m 7,6 km/h
26.05.2011 16,7 C 50 % 1009,3 hPa 0,0 l/m 11,8 km/h S-SO 9,33 h 3,2 UV-I 400 W/m 24,1 km/h
27.05.2011 12,0 C 77 % 1013,5 hPa 0,6 l/m 6,3 km/h S-SW 1,25 h 1,7 UV-I 165 W/m 16,1 km/h
28.05.2011 12,7 C 69 % 1014,6 hPa 0,0 l/m 3,8 km/h S-SW 5,50 h 2,8 UV-I 325 W/m 10,8 km/h
29.05.2011 15,4 C 72 % 1014,0 hPa 0,0 l/m 5,9 km/h S-SW 6,25 h 3,1 UV-I 327 W/m 11,7 km/h
30.05.2011 21,7 C 54 % 1011,1 hPa 0,0 l/m 6,1 km/h S 13,00 h 3,8 UV-I 477 W/m 12,0 km/h
31.05.2011 12,8 C 90 % 1014,7 hPa 6,8 l/m 5,9 km/h N-NW 0,83 h 1,1 UV-I 103 W/m 14,5 km/h
01.06.2011 12,5 C 72 % 1027,9 hPa 0,0 l/m 5,1 km/h N 9,83 h 3,5 UV-I 409 W/m 10,8 km/h
02.06.2011 15,1 C 59 % 1031,6 hPa 0,0 l/m 1,9 km/h N-NO 13,00 h 3,9 UV-I 504 W/m 6,4 km/h
03.06.2011 19,3 C 66 % 1027,6 hPa 0,0 l/m 4,7 km/h N-NO 12,33 h 3,6 UV-I 450 W/m 14,5 km/h
04.06.2011 22,1 C 59 % 1016,9 hPa 0,0 l/m 3,0 km/h N-NO 13,00 h 3,7 UV-I 470 W/m 12,5 km/h
05.06.2011 20,6 C 72 % 1005,8 hPa 0,4 l/m 5,1 km/h O-SO 8,67 h 3,9 UV-I 377 W/m 16,1 km/h
06.06.2011 18,0 C 87 % 1002,3 hPa 1,2 l/m 0,7 km/h S 5,75 h 2,8 UV-I 271 W/m 4,0 km/h
07.06.2011 18,2 C 79 % 1004,3 hPa 0,0 l/m 3,3 km/h NW 6,33 h 3,0 UV-I 339 W/m 10,1 km/h
08.06.2011 12,8 C 85 % 1006,0 hPa 2,4 l/m 2,2 km/h W-NW 1,67 h 1,1 UV-I 111 W/m 10,4 km/h
09.06.2011 15,2 C 60 % 1014,4 hPa 0,0 l/m 2,8 km/h NW 10,17 h 3,5 UV-I 450 W/m 7,6 km/h
10.06.2011 14,3 C 74 % 1014,7 hPa 0,0 l/m 3,2 km/h S-SO 2,92 h 2,5 UV-I 229 W/m 10,9 km/h
11.06.2011 14,1 C 71 % 1016,5 hPa 0,6 l/m 2,0 km/h W-NW 6,33 h 3,3 UV-I 362 W/m 10,0 km/h
12.06.2011 14,7 C 68 % 1017,5 hPa 0,0 l/m 0,8 km/h NW 6,83 h 3,2 UV-I 394 W/m 2,8 km/h
13.06.2011 17,3 C 70 % 1014,9 hPa 0,0 l/m 2,6 km/h S-SW 4,50 h 2,6 UV-I 263 W/m 8,9 km/h
14.06.2011 17,3 C 79 % 1016,9 hPa 2,0 l/m 1,4 km/h NW 4,83 h 3,1 UV-I 292 W/m 6,8 km/h
15.06.2011 16,5 C 86 % 1015,9 hPa 0,4 l/m 5,3 km/h S 4,17 h 2,1 UV-I 226 W/m 10,5 km/h
16.06.2011 16,8 C 82 % 1010,8 hPa 3,0 l/m 9,0 km/h S 2,08 h 2,7 UV-I 204 W/m 17,7 km/h
17.06.2011 15,2 C 71 % 1010,2 hPa 0,4 l/m 4,5 km/h S-SW 8,67 h 3,5 UV-I 421 W/m 12,8 km/h
18.06.2011 12,7 C 85 % 1003,4 hPa 8,4 l/m 11,3 km/h S 4,33 h 2,2 UV-I 259 W/m 19,3 km/h
19.06.2011 11,4 C 91 % 1008,4 hPa 3,0 l/m 14,9 km/h S 0,83 h 1,3 UV-I 130 W/m 27,4 km/h
20.06.2011 13,5 C 81 % 1012,9 hPa 0,2 l/m 5,1 km/h S-SW 3,42 h 2,5 UV-I 272 W/m 12,4 km/h
21.06.2011 17,2 C 83 % 1012,3 hPa 3,6 l/m 6,0 km/h S-SW 3,00 h 2,5 UV-I 238 W/m 12,5 km/h
22.06.2011 15,4 C 88 % 1010,7 hPa 25,0 l/m 11,9 km/h S 2,08 h 1,8 UV-I 161 W/m 20,1 km/h
23.06.2011 14,1 C 77 % 1014,6 hPa 0,0 l/m 6,1 km/h S-SW 3,67 h 2,5 UV-I 261 W/m 16,9 km/h
24.06.2011 13,1 C 78 % 1020,0 hPa 3,8 l/m 5,6 km/h S-SW 3,67 h 2,5 UV-I 269 W/m 15,7 km/h
25.06.2011 11,6 C 94 % 1022,5 hPa 4,0 l/m 3,2 km/h S-SW 1,00 h 1,5 UV-I 133 W/m 9,6 km/h
26.06.2011 17,0 C 93 % 1023,0 hPa 2,6 l/m 1,2 km/h W 3,92 h 2,4 UV-I 214 W/m 6,1 km/h
27.06.2011 22,2 C 70 % 1019,2 hPa 0,2 l/m 8,0 km/h SO 13,08 h 4,3 UV-I 485 W/m 15,3 km/h
28.06.2011 24,2 C 59 % 1014,7 hPa 0,0 l/m 5,3 km/h SO 13,08 h 4,3 UV-I 474 W/m 13,6 km/h
29.06.2011 19,4 C 84 % 1015,2 hPa 8,6 l/m 10,0 km/h NW 5,00 h 3,6 UV-I 283 W/m 21,7 km/h
30.06.2011 13,1 C 83 % 1020,3 hPa 9,2 l/m 4,4 km/h N-NW 4,42 h 3,2 UV-I 282 W/m 11,3 km/h
01.07.2011 11,6 C 91 % 1020,2 hPa 6,2 l/m 1,2 km/h N-NW 5,00 h 2,7 UV-I 280 W/m 7,6 km/h
02.07.2011 11,5 C 84 % 1014,4 hPa 0,4 l/m 8,4 km/h N-NW 1,08 h 1,9 UV-I 171 W/m 18,5 km/h
03.07.2011 11,2 C 94 % 1013,9 hPa 2,2 l/m 6,1 km/h NW 0,00 h 0,9 UV-I 64 W/m 19,3 km/h
04.07.2011 12,6 C 93 % 1016,1 hPa 0,2 l/m 0,8 km/h N-NW 0,00 h 1,2 UV-I 100 W/m 4,4 km/h
05.07.2011 17,6 C 76 % 1013,0 hPa 0,0 l/m 0,1 km/h S-SW 10,25 h 4,0 UV-I 460 W/m 2,0 km/h
06.07.2011 18,9 C 73 % 1008,3 hPa 0,0 l/m 5,1 km/h S 6,67 h 3,2 UV-I 346 W/m 13,3 km/h
07.07.2011 18,8 C 72 % 1008,2 hPa 0,0 l/m 3,3 km/h S-SO 5,33 h 2,8 UV-I 298 W/m 7,2 km/h
08.07.2011 17,2 C 68 % 1011,0 hPa 0,0 l/m 6,9 km/h S-SW 5,83 h 3,3 UV-I 350 W/m 12,5 km/h
09.07.2011 19,4 C 69 % 1014,3 hPa 0,0 l/m 9,4 km/h S-SO 5,83 h 2,9 UV-I 313 W/m 18,5 km/h
10.07.2011 16,8 C 81 % 1017,6 hPa 0,0 l/m 0,1 km/h S 2,75 h 2,5 UV-I 234 W/m 1,6 km/h
11.07.2011 17,0 C 75 % 1018,9 hPa 0,2 l/m 0,8 km/h N-NW 10,00 h 3,4 UV-I 419 W/m 3,6 km/h
12.07.2011 21,5 C 57 % 1012,1 hPa 0,2 l/m 7,7 km/h SO 5,50 h 3,6 UV-I 350 W/m 21,7 km/h
13.07.2011 15,6 C 89 % 1006,5 hPa 1,2 l/m 2,8 km/h S-SW 0,17 h 1,2 UV-I 107 W/m 12,1 km/h
14.07.2011 13,4 C 80 % 1010,7 hPa 1,8 l/m 25,3 km/h S 0,75 h 1,9 UV-I 153 W/m 45,8 km/h
15.07.2011 13,9 C 89 % 1015,8 hPa 7,2 l/m 4,7 km/h S-SW 1,17 h 1,1 UV-I 92 W/m 16,5 km/h
16.07.2011 17,6 C 70 % 1006,6 hPa 0,2 l/m 6,4 km/h S-SO 8,67 h 3,3 UV-I 394 W/m 11,7 km/h
17.07.2011 15,8 C 84 % 998,7 hPa 4,2 l/m 11,3 km/h S 2,00 h 2,2 UV-I 197 W/m 18,5 km/h
18.07.2011 15,5 C 76 % 1001,9 hPa 0,0 l/m 8,3 km/h S 4,83 h 3,0 UV-I 329 W/m 13,3 km/h
19.07.2011 16,8 C 74 % 1004,3 hPa 0,0 l/m 5,3 km/h S 7,32 h 3,1 UV-I 351 W/m 13,7 km/h
20.07.2011 15,7 C 87 % 1007,2 hPa 0,6 l/m 1,6 km/h NW 1,58 h 2,2 UV-I 200 W/m 8,4 km/h
21.07.2011 15,5 C 90 % 1008,2 hPa 5,6 l/m 0,8 km/h NW 2,92 h 2,4 UV-I 215 W/m 5,2 km/h
22.07.2011 13,1 C 78 % 1008,7 hPa 0,0 l/m 6,8 km/h N-NW 2,50 h 2,5 UV-I 221 W/m 19,3 km/h
23.07.2011 12,3 C 80 % 1006,9 hPa 0,2 l/m 8,1 km/h S-SW 2,83 h 2,5 UV-I 240 W/m 22,1 km/h
24.07.2011 10,2 C 93 % 1006,6 hPa 13,2 l/m 19,4 km/h S-SW 0,17 h 1,7 UV-I 122 W/m 33,0 km/h
25.07.2011 14,3 C 80 % 1009,2 hPa 7,2 l/m 1,4 km/h S-SW 7,08 h 3,0 UV-I 348 W/m 4,8 km/h
26.07.2011 15,1 C 92 % 1013,0 hPa 2,4 l/m 0,0 km/h S-SO 0,67 h 2,3 UV-I 198 W/m 0,4 km/h
27.07.2011 16,5 C 87 % 1017,2 hPa 0,2 l/m 0,6 km/h O-SO 4,42 h 2,9 UV-I 297 W/m 4,0 km/h
28.07.2011 18,8 C 75 % 1017,4 hPa 0,0 l/m 1,9 km/h N-NO 11,42 h 3,4 UV-I 438 W/m 10,1 km/h
29.07.2011 15,0 C 83 % 1017,1 hPa 0,0 l/m 8,1 km/h NW 1,83 h 2,6 UV-I 224 W/m 18,5 km/h
30.07.2011 12,4 C 93 % 1015,8 hPa 1,0 l/m 5,8 km/h NW 0,00 h 1,1 UV-I 79 W/m 20,5 km/h
31.07.2011 15,0 C 74 % 1016,0 hPa 0,0 l/m 3,3 km/h N-NW 6,83 h 3,3 UV-I 355 W/m 10,1 km/h
01.08.2011 15,7 C 83 % 1016,9 hPa 0,0 l/m 0,3 km/h N-NO 3,92 h 2,5 UV-I 255 W/m 2,4 km/h
02.08.2011 19,9 C 73 % 1016,9 hPa 0,0 l/m 3,4 km/h SO 10,00 h 3,5 UV-I 405 W/m 8,4 km/h
03.08.2011 20,1 C 80 % 1013,6 hPa 0,0 l/m 3,3 km/h S-SO 4,42 h 2,4 UV-I 267 W/m 8,0 km/h
04.08.2011 19,6 C 78 % 1012,6 hPa 0,2 l/m 1,2 km/h W-NW 9,25 h 3,3 UV-I 411 W/m 8,1 km/h
05.08.2011 19,9 C 82 % 1011,5 hPa 2,6 l/m 2,4 km/h S-SW 7,00 h 3,3 UV-I 361 W/m 8,1 km/h
06.08.2011 18,8 C 88 % 1003,4 hPa 4,4 l/m 5,6 km/h S-SO 2,92 h 2,7 UV-I 229 W/m 12,5 km/h
07.08.2011 15,5 C 77 % 1005,2 hPa 1,4 l/m 3,6 km/h S-SW 3,67 h 2,9 UV-I 296 W/m 12,0 km/h
08.08.2011 12,7 C 87 % 1005,5 hPa 8,4 l/m 6,8 km/h S-SW 2,25 h 1,9 UV-I 197 W/m 19,3 km/h
09.08.2011 13,2 C 82 % 1015,7 hPa 4,4 l/m 8,8 km/h NW 3,58 h 2,3 UV-I 255 W/m 27,0 km/h
10.08.2011 14,7 C 72 % 1020,1 hPa 0,0 l/m 8,9 km/h S-SW 3,08 h 2,8 UV-I 257 W/m 28,2 km/h
11.08.2011 18,9 C 62 % 1010,5 hPa 0,0 l/m 5,3 km/h S-SW 4,67 h 2,5 UV-I 273 W/m 14,1 km/h
12.08.2011 15,9 C 95 % 1008,9 hPa 9,6 l/m 2,5 km/h S-SW 0,92 h 1,7 UV-I 130 W/m 8,1 km/h
13.08.2011 16,6 C 92 % 1008,9 hPa 0,2 l/m 0,2 km/h S-SW 1,50 h 2,0 UV-I 188 W/m 2,8 km/h
14.08.2011 16,4 C 95 % 1006,5 hPa 13,2 l/m 2,2 km/h S-SO 0,00 h 1,4 UV-I 82 W/m 8,1 km/h
15.08.2011 14,7 C 87 % 1015,3 hPa 1,0 l/m 0,5 km/h W-NW 4,08 h 2,4 UV-I 272 W/m 2,8 km/h
16.08.2011 13,5 C 89 % 1018,1 hPa 0,2 l/m 0,0 km/h S-SO 0,67 h 1,8 UV-I 149 W/m 0,4 km/h
17.08.2011 17,6 C 83 % 1016,0 hPa 0,0 l/m 1,2 km/h NW 8,17 h 3,1 UV-I 364 W/m 3,6 km/h
18.08.2011 21,1 C 75 % 1012,0 hPa 9,8 l/m 2,4 km/h SO 8,83 h 3,2 UV-I 387 W/m 9,7 km/h
19.08.2011 14,6 C 89 % 1016,3 hPa 8,0 l/m 3,2 km/h NW 1,83 h 1,6 UV-I 145 W/m 12,9 km/h
20.08.2011 15,4 C 82 % 1020,4 hPa 0,0 l/m 0,7 km/h S 11,92 h 3,5 UV-I 428 W/m 4,0 km/h
21.08.2011 19,9 C 86 % 1015,3 hPa 0,6 l/m 3,3 km/h S 5,67 h 2,6 UV-I 272 W/m 10,0 km/h
22.08.2011 17,8 C 89 % 1018,0 hPa 0,0 l/m 0,6 km/h W 1,92 h 2,0 UV-I 193 W/m 3,2 km/h
23.08.2011 21,6 C 87 % 1013,0 hPa 21,2 l/m 4,8 km/h O-SO 9,83 h 3,0 UV-I 357 W/m 13,3 km/h
24.08.2011 19,5 C 89 % 1014,0 hPa 11,0 l/m 0,9 km/h S 5,58 h 2,8 UV-I 295 W/m 2,8 km/h
25.08.2011 19,0 C 87 % 1013,1 hPa 0,2 l/m 3,7 km/h SO 7,67 h 3,1 UV-I 334 W/m 13,7 km/h
26.08.2011 21,0 C 86 % 1005,7 hPa 9,4 l/m 8,4 km/h S-SO 8,83 h 3,4 UV-I 381 W/m 19,7 km/h
27.08.2011 13,3 C 89 % 1011,8 hPa 6,2 l/m 3,1 km/h S 1,83 h 1,8 UV-I 183 W/m 8,8 km/h
28.08.2011 13,6 C 78 % 1015,9 hPa 0,0 l/m 5,9 km/h S-SW 1,58 h 2,3 UV-I 239 W/m 9,7 km/h
29.08.2011 11,5 C 84 % 1014,1 hPa 3,6 l/m 5,7 km/h S-SW 1,42 h 1,5 UV-I 124 W/m 20,1 km/h
30.08.2011 11,5 C 86 % 1015,1 hPa 0,2 l/m 0,6 km/h W 1,67 h 1,9 UV-I 202 W/m 4,4 km/h
31.08.2011 11,4 C 87 % 1014,5 hPa 0,2 l/m 0,5 km/h NW 6,25 h 2,6 UV-I 309 W/m 2,8 km/h
01.09.2011 11,1 C 88 % 1015,2 hPa 0,0 l/m 1,3 km/h NW 5,17 h 2,1 UV-I 270 W/m 3,2 km/h
02.09.2011 15,9 C 85 % 1013,3 hPa 0,2 l/m 0,8 km/h S 9,75 h 2,7 UV-I 383 W/m 2,4 km/h
03.09.2011 18,6 C 87 % 1011,5 hPa 0,0 l/m 1,2 km/h S 8,17 h 2,3 UV-I 321 W/m 3,6 km/h
04.09.2011 19,3 C 92 % 1008,7 hPa 11,4 l/m 5,4 km/h S 2,17 h 2,1 UV-I 202 W/m 8,8 km/h
05.09.2011 15,1 C 79 % 1014,6 hPa 0,2 l/m 7,3 km/h S-SW 4,67 h 2,2 UV-I 252 W/m 20,9 km/h
06.09.2011 14,6 C 76 % 1013,6 hPa 1,6 l/m 11,7 km/h S 4,25 h 2,2 UV-I 239 W/m 24,9 km/h
07.09.2011 12,8 C 87 % 1009,2 hPa 5,0 l/m 5,7 km/h S 1,42 h 1,6 UV-I 162 W/m 21,7 km/h
08.09.2011 11,8 C 96 % 1007,9 hPa 18,2 l/m 6,7 km/h S-SW 0,00 h 1,1 UV-I 77 W/m 25,3 km/h
09.09.2011 16,0 C 94 % 1011,6 hPa 1,4 l/m 0,8 km/h S-SW 0,92 h 1,7 UV-I 147 W/m 5,3 km/h
10.09.2011 19,8 C 89 % 1010,0 hPa 1,6 l/m 5,6 km/h S 4,00 h 2,5 UV-I 256 W/m 12,4 km/h
11.09.2011 16,9 C 91 % 1009,0 hPa 9,0 l/m 1,9 km/h S 2,83 h 1,6 UV-I 144 W/m 10,4 km/h
12.09.2011 17,0 C 82 % 1009,4 hPa 0,0 l/m 16,1 km/h S 4,00 h 2,2 UV-I 248 W/m 25,4 km/h
13.09.2011 14,4 C 78 % 1011,0 hPa 0,0 l/m 3,8 km/h S-SW 4,33 h 2,5 UV-I 286 W/m 12,5 km/h
14.09.2011 12,9 C 77 % 1016,4 hPa 0,0 l/m 4,2 km/h S-SW 2,25 h 1,7 UV-I 216 W/m 15,3 km/h
15.09.2011 10,9 C 86 % 1020,3 hPa 0,0 l/m 0,8 km/h NW 4,25 h 2,1 UV-I 251 W/m 8,1 km/h
16.09.2011 13,6 C 80 % 1016,3 hPa 0,0 l/m 6,3 km/h SO 7,17 h 2,4 UV-I 306 W/m 14,1 km/h
17.09.2011 14,6 C 85 % 1009,0 hPa 0,2 l/m 2,8 km/h S 4,08 h 2,1 UV-I 241 W/m 8,4 km/h
18.09.2011 10,2 C 91 % 1004,5 hPa 0,6 l/m 1,0 km/h S-SW 1,25 h 1,2 UV-I 147 W/m 3,6 km/h
19.09.2011 9,6 C 89 % 1014,2 hPa 0,0 l/m 3,6 km/h S 3,00 h 1,7 UV-I 200 W/m 8,0 km/h
20.09.2011 12,5 C 88 % 1022,6 hPa 0,2 l/m 0,6 km/h S 1,50 h 1,4 UV-I 143 W/m 2,8 km/h
21.09.2011 13,8 C 81 % 1018,8 hPa 0,0 l/m 3,4 km/h S-SW 0,58 h 1,3 UV-I 133 W/m 7,7 km/h
22.09.2011 12,4 C 84 % 1018,3 hPa 0,2 l/m 1,6 km/h S-SW 1,50 h 1,6 UV-I 160 W/m 12,1 km/h
23.09.2011 10,4 C 89 % 1018,8 hPa 0,0 l/m 0,7 km/h NW 4,58 h 1,8 UV-I 241 W/m 4,0 km/h
24.09.2011 11,4 C 88 % 1017,2 hPa 0,2 l/m 1,9 km/h S-SO 8,83 h 2,2 UV-I 314 W/m 6,0 km/h
25.09.2011 13,6 C 89 % 1019,4 hPa 0,2 l/m 0,3 km/h S-SW 8,92 h 2,0 UV-I 314 W/m 1,2 km/h
26.09.2011 16,0 C 86 % 1023,6 hPa 0,2 l/m 2,0 km/h S 7,42 h 1,8 UV-I 264 W/m 4,8 km/h
27.09.2011 15,1 C 91 % 1029,5 hPa 0,0 l/m 0,0 km/h N-NW 3,42 h 1,6 UV-I 211 W/m 0,4 km/h
28.09.2011 15,4 C 90 % 1030,0 hPa 0,2 l/m 0,3 km/h SO 5,92 h 1,8 UV-I 240 W/m 2,0 km/h
29.09.2011 13,8 C 86 % 1028,3 hPa 0,2 l/m 0,6 km/h SO 8,58 h 1,9 UV-I 291 W/m 3,6 km/h
30.09.2011 14,8 C 81 % 1026,7 hPa 0,0 l/m 2,7 km/h S-SO 9,08 h 2,0 UV-I 314 W/m 5,2 km/h
01.10.2011 14,7 C 81 % 1026,1 hPa 0,0 l/m 0,4 km/h O 9,08 h 1,9 UV-I 313 W/m 1,6 km/h
02.10.2011 14,7 C 83 % 1024,1 hPa 0,0 l/m 0,1 km/h W-NW 9,08 h 1,9 UV-I 306 W/m 0,8 km/h
03.10.2011 15,6 C 79 % 1020,5 hPa 0,2 l/m 0,5 km/h S-SW 6,17 h 1,7 UV-I 263 W/m 2,4 km/h
04.10.2011 14,5 C 88 % 1018,8 hPa 0,0 l/m 3,4 km/h S-SW 2,75 h 1,1 UV-I 124 W/m 14,5 km/h
05.10.2011 15,0 C 87 % 1017,5 hPa 0,8 l/m 3,4 km/h S-SW 0,08 h 1,1 UV-I 89 W/m 16,5 km/h
06.10.2011 11,4 C 85 % 1006,6 hPa 8,4 l/m 9,7 km/h S 0,00 h 0,8 UV-I 65 W/m 18,1 km/h
07.10.2011 8,2 C 93 % 1009,2 hPa 10,0 l/m 5,2 km/h S-SW 0,58 h 1,0 UV-I 93 W/m 22,5 km/h
08.10.2011 4,3 C 95 % 1014,0 hPa 15,8 l/m 5,3 km/h NW 1,58 h 1,0 UV-I 116 W/m 11,3 km/h
09.10.2011 7,5 C 90 % 1018,5 hPa 4,4 l/m 7,6 km/h S 5,42 h 1,7 UV-I 239 W/m 16,9 km/h
10.10.2011 14,3 C 96 % 1012,8 hPa 9,0 l/m 8,5 km/h SW 0,00 h 0,8 UV-I 34 W/m 27,4 km/h
11.10.2011 12,4 C 97 % 1013,8 hPa 27,8 l/m 12,9 km/h SW 0,00 h 0,5 UV-I 31 W/m 34,6 km/h
12.10.2011 8,5 C 97 % 1019,5 hPa 13,6 l/m 0,4 km/h SW 0,00 h 0,9 UV-I 86 W/m 4,8 km/h
13.10.2011 5,9 C 94 % 1029,8 hPa 0,0 l/m 0,0 km/h NW 2,17 h 1,3 UV-I 173 W/m 0,4 km/h
14.10.2011 5,1 C 90 % 1034,2 hPa 0,2 l/m 0,1 km/h SO 8,17 h 1,5 UV-I 266 W/m 2,0 km/h
15.10.2011 6,1 C 78 % 1030,3 hPa 0,0 l/m 4,1 km/h SO 8,08 h 1,5 UV-I 273 W/m 10,9 km/h
16.10.2011 6,6 C 81 % 1025,1 hPa 0,0 l/m 2,7 km/h S-SO 8,00 h 1,5 UV-I 268 W/m 7,6 km/h
17.10.2011 6,4 C 90 % 1020,3 hPa 0,0 l/m 5,0 km/h S 2,83 h 1,0 UV-I 152 W/m 10,0 km/h
18.10.2011 6,2 C 93 % 1009,8 hPa 3,0 l/m 3,4 km/h S 0,83 h 0,7 UV-I 64 W/m 8,4 km/h
19.10.2011 6,6 C 88 % 1014,8 hPa 0,6 l/m 3,6 km/h S 2,33 h 1,0 UV-I 156 W/m 10,5 km/h
20.10.2011 5,8 C 88 % 1024,4 hPa 0,4 l/m 1,1 km/h W 0,92 h 0,8 UV-I 119 W/m 7,3 km/h
21.10.2011 3,5 C 85 % 1027,7 hPa 0,2 l/m 0,3 km/h S-SW 5,67 h 1,1 UV-I 209 W/m 2,8 km/h
22.10.2011 5,0 C 76 % 1022,9 hPa 0,0 l/m 10,1 km/h S-SO 7,75 h 1,2 UV-I 245 W/m 20,9 km/h
23.10.2011 6,3 C 76 % 1018,1 hPa 0,0 l/m 11,0 km/h S-SO 7,50 h 1,2 UV-I 239 W/m 20,1 km/h
24.10.2011 8,5 C 79 % 1011,0 hPa 0,0 l/m 10,5 km/h SO 6,92 h 1,1 UV-I 228 W/m 28,6 km/h
25.10.2011 8,4 C 82 % 1006,4 hPa 0,0 l/m 10,5 km/h SO 5,00 h 1,1 UV-I 175 W/m 29,3 km/h
26.10.2011 6,9 C 85 % 1014,1 hPa 0,0 l/m 1,7 km/h S-SO 5,00 h 1,1 UV-I 201 W/m 6,4 km/h
27.10.2011 9,1 C 88 % 1016,7 hPa 0,2 l/m 18,6 km/h S-SO 6,42 h 1,1 UV-I 202 W/m 28,1 km/h
28.10.2011 9,6 C 89 % 1024,0 hPa 0,0 l/m 0,6 km/h S 5,08 h 1,0 UV-I 182 W/m 3,2 km/h
29.10.2011 11,0 C 89 % 1023,7 hPa 0,2 l/m 2,3 km/h S-SO 2,67 h 1,0 UV-I 124 W/m 4,0 km/h
30.10.2011 11,6 C 94 % 1021,8 hPa 0,0 l/m 0,5 km/h S-SW 1,67 h 1,0 UV-I 120 W/m 2,8 km/h
31.10.2011 10,4 C 95 % 1018,9 hPa 0,4 l/m 5,4 km/h S-SO 0,58 h 0,8 UV-I 96 W/m 10,5 km/h
01.11.2011 8,1 C 95 % 1015,4 hPa 0,2 l/m 5,7 km/h S-SO 5,08 h 1,0 UV-I 165 W/m 9,6 km/h
02.11.2011 9,1 C 94 % 1012,7 hPa 0,0 l/m 9,6 km/h S-SO 0,42 h 0,9 UV-I 83 W/m 18,1 km/h
03.11.2011 11,4 C 83 % 1006,1 hPa 0,2 l/m 5,6 km/h S-SO 4,33 h 1,0 UV-I 179 W/m 10,5 km/h
04.11.2011 11,0 C 80 % 1006,0 hPa 0,0 l/m 9,4 km/h S-SO 2,33 h 0,9 UV-I 129 W/m 13,3 km/h
05.11.2011 9,3 C 84 % 1007,9 hPa 0,0 l/m 4,7 km/h S-SO 2,17 h 0,8 UV-I 123 W/m 10,1 km/h
06.11.2011 7,8 C 92 % 1015,5 hPa 0,0 l/m 1,5 km/h N-NO 6,00 h 1,0 UV-I 180 W/m 5,7 km/h
07.11.2011 5,9 C 97 % 1018,8 hPa 0,2 l/m 0,5 km/h N-NO 0,00 h 0,5 UV-I 40 W/m 4,8 km/h
08.11.2011 5,9 C 95 % 1019,0 hPa 0,2 l/m 2,6 km/h S-SO 2,35 h 0,7 UV-I 110 W/m 7,3 km/h
09.11.2011 6,0 C 92 % 1022,1 hPa 0,2 l/m 1,9 km/h S 6,42 h 0,9 UV-I 175 W/m 2,4 km/h
10.11.2011 4,1 C 96 % 1023,8 hPa 0,2 l/m 4,5 km/h SO 0,00 h 0,5 UV-I 40 W/m 20,5 km/h
11.11.2011 2,2 C 88 % 1026,1 hPa 0,0 l/m 9,7 km/h SO 5,33 h 0,8 UV-I 159 W/m 22,9 km/h
12.11.2011 3,1 C 92 % 1032,3 hPa 0,0 l/m 3,1 km/h S-SO 6,17 h 0,8 UV-I 168 W/m 6,0 km/h
13.11.2011 3,2 C 90 % 1032,2 hPa 0,0 l/m 2,5 km/h SO 5,92 h 0,9 UV-I 178 W/m 3,2 km/h
14.11.2011 2,5 C 84 % 1026,1 hPa 0,2 l/m 1,5 km/h S 5,17 h 0,8 UV-I 155 W/m 5,6 km/h
15.11.2011 1,3 C 87 % 1023,5 hPa 0,0 l/m 2,9 km/h SO 5,92 h 0,9 UV-I 156 W/m 9,6 km/h
16.11.2011 -0,5 C 93 % 1022,8 hPa 0,0 l/m 8,4 km/h S-SO 3,75 h 0,9 UV-I 131 W/m 19,7 km/h
17.11.2011 2,8 C 89 % 1023,2 hPa 0,0 l/m 1,0 km/h S-SO 5,50 h 0,8 UV-I 154 W/m 3,6 km/h
18.11.2011 5,8 C 96 % 1023,0 hPa 0,2 l/m 0,3 km/h S-SW 0,00 h 0,5 UV-I 47 W/m 2,8 km/h
19.11.2011 6,7 C 89 % 1021,3 hPa 0,0 l/m 2,0 km/h S 1,00 h 0,6 UV-I 89 W/m 8,8 km/h
20.11.2011 4,3 C 93 % 1020,5 hPa 0,0 l/m 0,1 km/h SO 1,33 h 0,6 UV-I 89 W/m 1,2 km/h
21.11.2011 4,1 C 90 % 1017,7 hPa 0,0 l/m 0,1 km/h O-SO 5,42 h 0,7 UV-I 144 W/m 1,2 km/h
22.11.2011 4,3 C 91 % 1020,5 hPa 0,2 l/m 0,0 km/h W-NW 5,17 h 0,7 UV-I 139 W/m 0,0 km/h
23.11.2011 6,4 C 96 % 1027,7 hPa 0,4 l/m 0,0 km/h S-SW 3,18 h 0,6 UV-I 112 W/m 0,8 km/h
24.11.2011 5,4 C 92 % 1030,3 hPa 0,2 l/m 0,1 km/h S-SW 2,17 h 0,6 UV-I 105 W/m 1,6 km/h
25.11.2011 4,9 C 91 % 1024,5 hPa 6,0 l/m 9,6 km/h S 1,18 h 0,6 UV-I 95 W/m 19,8 km/h
26.11.2011 6,9 C 86 % 1024,8 hPa 0,6 l/m 10,6 km/h S-SW 0,42 h 0,6 UV-I 69 W/m 27,0 km/h
27.11.2011 6,6 C 89 % 1019,5 hPa 0,4 l/m 12,1 km/h S-SW 0,00 h 0,0 UV-I 19 W/m 34,2 km/h
28.11.2011 3,2 C 89 % 1025,7 hPa 0,2 l/m 6,8 km/h S 4,83 h 0,6 UV-I 120 W/m 9,6 km/h
29.11.2011 1,8 C 95 % 1017,0 hPa 0,2 l/m 8,0 km/h S 0,83 h 0,6 UV-I 65 W/m 12,9 km/h
30.11.2011 4,2 C 88 % 1025,4 hPa 0,2 l/m 1,3 km/h S-SW 4,58 h 0,6 UV-I 122 W/m 7,7 km/h
01.12.2011 6,9 C 95 % 1012,5 hPa 5,0 l/m 11,5 km/h S-SO 0,00 h 0,0 UV-I 20 W/m 19,7 km/h
02.12.2011 5,6 C 91 % 1011,0 hPa 4,8 l/m 6,0 km/h S 0,00 h 0,5 UV-I 27 W/m 19,7 km/h
03.12.2011 5,2 C 93 % 1003,3 hPa 6,2 l/m 14,2 km/h S 0,00 h 0,0 UV-I 15 W/m 27,0 km/h
04.12.2011 5,9 C 86 % 996,3 hPa 0,0 l/m 3,6 km/h S-SW 0,42 h 0,5 UV-I 60 W/m 15,6 km/h
05.12.2011 2,3 C 90 % 1001,5 hPa 7,0 l/m 9,8 km/h S-SW 0,25 h 0,5 UV-I 44 W/m 27,0 km/h
06.12.2011 1,6 C 93 % 1004,9 hPa 3,0 l/m 9,4 km/h S-SW 0,33 h 0,5 UV-I 49 W/m 23,3 km/h
07.12.2011 3,6 C 90 % 1001,8 hPa 9,2 l/m 15,6 km/h S 0,58 h 0,5 UV-I 30 W/m 34,2 km/h
08.12.2011 5,6 C 87 % 1012,0 hPa 1,0 l/m 19,3 km/h S 0,08 h 0,5 UV-I 63 W/m 32,2 km/h
09.12.2011 3,6 C 79 % 1007,1 hPa 5,2 l/m 9,6 km/h S-SW 4,42 h 0,6 UV-I 118 W/m 24,1 km/h
10.12.2011 2,3 C 88 % 1013,6 hPa 1,4 l/m 8,8 km/h S-SW 0,00 h 0,5 UV-I 37 W/m 21,7 km/h
11.12.2011 0,5 C 87 % 1013,3 hPa 0,0 l/m 5,5 km/h S 3,00 h 0,6 UV-I 87 W/m 16,9 km/h
12.12.2011 3,8 C 92 % 1007,3 hPa 7,0 l/m 10,1 km/h S 0,25 h 0,0 UV-I 22 W/m 22,6 km/h
13.12.2011 4,5 C 90 % 998,3 hPa 10,8 l/m 21,7 km/h S 0,00 h 0,0 UV-I 18 W/m 34,6 km/h
14.12.2011 4,2 C 89 % 999,8 hPa 5,8 l/m 13,0 km/h S-SW 0,67 h 0,5 UV-I 49 W/m 25,8 km/h
15.12.2011 4,1 C 84 % 1001,8 hPa 0,4 l/m 20,5 km/h S 0,25 h 0,5 UV-I 47 W/m 32,2 km/h
16.12.2011 1,9 C 97 % 979,0 hPa 25,0 l/m 15,2 km/h S-SO 0,00 h 0,0 UV-I 19 W/m 33,8 km/h
17.12.2011 1,6 C 97 % 1001,6 hPa 6,0 l/m 6,1 km/h W 0,17 h 0,5 UV-I 33 W/m 19,7 km/h
18.12.2011 0,5 C 97 % 1009,1 hPa 3,2 l/m 5,6 km/h W 0,00 h 0,0 UV-I 24 W/m 20,9 km/h
19.12.2011 -1,5 C 96 % 1015,4 hPa 0,2 l/m 1,1 km/h SW 0,00 h 0,0 UV-I 7 W/m 8,8 km/h
20.12.2011 1,5 C 98 % 1008,2 hPa 15,8 l/m 5,3 km/h S-SO 0,00 h 0,0 UV-I 11 W/m 18,1 km/h
21.12.2011 2,6 C 99 % 1016,9 hPa 5,0 l/m 2,3 km/h W 0,00 h 0,0 UV-I 18 W/m 10,1 km/h
22.12.2011 6,0 C 99 % 1020,8 hPa 12,4 l/m 1,1 km/h W 0,00 h 0,0 UV-I 29 W/m 6,8 km/h
23.12.2011 6,9 C 99 % 1016,2 hPa 5,4 l/m 3,4 km/h S-SW 0,00 h 0,0 UV-I 24 W/m 16,1 km/h
24.12.2011 2,9 C 96 % 1022,8 hPa 8,2 l/m 12,5 km/h NW 0,00 h 0,0 UV-I 27 W/m 25,8 km/h
25.12.2011 6,3 C 96 % 1029,5 hPa 2,0 l/m 8,8 km/h S-SW 0,00 h 0,0 UV-I 21 W/m 22,5 km/h
26.12.2011 8,1 C 98 % 1033,9 hPa 2,8 l/m 4,8 km/h SW 0,00 h 0,0 UV-I 24 W/m 21,3 km/h
27.12.2011 6,3 C 94 % 1034,1 hPa 0,8 l/m 2,0 km/h W 0,00 h 0,0 UV-I 21 W/m 6,8 km/h
28.12.2011 4,7 C 93 % 1020,3 hPa 1,2 l/m 7,0 km/h S 4,00 h 0,6 UV-I 116 W/m 16,9 km/h
29.12.2011 3,5 C 91 % 1011,7 hPa 9,0 l/m 18,0 km/h S-SW 0,00 h 0,0 UV-I 36 W/m 36,2 km/h
30.12.2011 2,4 C 96 % 1011,3 hPa 4,2 l/m 7,0 km/h W 0,08 h 0,5 UV-I 35 W/m 24,9 km/h
31.12.2011 4,4 C 98 % 1010,8 hPa 4,4 l/m 5,0 km/h S-SO 0,00 h 0,5 UV-I 43 W/m 12,5 km/h
Min-Datum 22.02.11 08.05.11 16.12.11 200 Tage 01.01.11 - - - - 01.01.11
Min-Zeit 07:35 15:50 13:40 - 00:00 - - - - 00:00
Minimum -10,1 C 27 % 964,1 hPa - 0,0 km/h - - - - 0,0 km/h
Max-Datum 26.08.11 01.01.11 23.03.11 11.10.11 14.07.11 - 27.06.11 21.06.11 01.07.11 24.12.11
Max-Zeit 16:00 14:40 09:50 20:35 15:35 - 20:10 13:00 14:25 07:10
Maximum 30,2 C 100 % 1040,4 hPa 27,8 l/m 40,8 km/h
S
- 13,00 h 8,7 UV-I 1255 W/m 64,4 km/h
N-NW
Durchschnitt 9,4 C 83 % 1016,8 hPa #813,0 l/m 5,4 km/h S #1544:58 h 1,8 UV-I 207 W/m 12,9 km/h

Durchschnitt Minimum Temp.5,3 C
Durchschnitt Maximum Temp.13,8 C